sensor_id;sensor_type;location;lat;lon;timestamp;temperature;humidity
9723;DHT22;4900;49.306;8.500;2023-07-29T00:02:03;20.71;80.68
9723;DHT22;4900;49.306;8.500;2023-07-29T00:04:30;20.72;80.69
9723;DHT22;4900;49.306;8.500;2023-07-29T00:06:55;20.69;80.75
9723;DHT22;4900;49.306;8.500;2023-07-29T00:09:20;20.69;80.77
9723;DHT22;4900;49.306;8.500;2023-07-29T00:11:46;20.68;80.92
9723;DHT22;4900;49.306;8.500;2023-07-29T00:14:11;20.68;81.02
9723;DHT22;4900;49.306;8.500;2023-07-29T00:16:36;20.68;80.95
9723;DHT22;4900;49.306;8.500;2023-07-29T00:19:02;20.71;80.99
9723;DHT22;4900;49.306;8.500;2023-07-29T00:21:28;20.69;80.94
9723;DHT22;4900;49.306;8.500;2023-07-29T00:23:53;20.68;80.95
9723;DHT22;4900;49.306;8.500;2023-07-29T00:26:19;20.67;80.92
9723;DHT22;4900;49.306;8.500;2023-07-29T00:28:45;20.68;80.89
9723;DHT22;4900;49.306;8.500;2023-07-29T00:31:10;20.65;80.86
9723;DHT22;4900;49.306;8.500;2023-07-29T00:33:36;20.62;80.83
9723;DHT22;4900;49.306;8.500;2023-07-29T00:36:01;20.67;80.74
9723;DHT22;4900;49.306;8.500;2023-07-29T00:38:28;20.65;80.67
9723;DHT22;4900;49.306;8.500;2023-07-29T00:40:54;20.65;80.55
9723;DHT22;4900;49.306;8.500;2023-07-29T00:43:20;20.64;80.49
9723;DHT22;4900;49.306;8.500;2023-07-29T00:45:46;20.62;80.44
9723;DHT22;4900;49.306;8.500;2023-07-29T00:48:12;20.59;80.45
9723;DHT22;4900;49.306;8.500;2023-07-29T00:50:38;20.55;80.34
9723;DHT22;4900;49.306;8.500;2023-07-29T00:53:04;20.55;80.40
9723;DHT22;4900;49.306;8.500;2023-07-29T00:55:29;20.52;80.48
9723;DHT22;4900;49.306;8.500;2023-07-29T00:57:55;20.49;80.59
9723;DHT22;4900;49.306;8.500;2023-07-29T01:00:21;20.52;80.61
9723;DHT22;4900;49.306;8.500;2023-07-29T01:02:47;20.52;80.63
9723;DHT22;4900;49.306;8.500;2023-07-29T01:05:14;20.55;80.62
9723;DHT22;4900;49.306;8.500;2023-07-29T01:08:00;20.54;80.40
9723;DHT22;4900;49.306;8.500;2023-07-29T01:13:37;20.55;80.53
9723;DHT22;4900;49.306;8.500;2023-07-29T01:16:20;20.57;80.59
9723;DHT22;4900;49.306;8.500;2023-07-29T01:18:47;20.57;80.58
9723;DHT22;4900;49.306;8.500;2023-07-29T01:21:16;20.52;80.56
9723;DHT22;4900;49.306;8.500;2023-07-29T01:23:43;20.51;80.52
9723;DHT22;4900;49.306;8.500;2023-07-29T01:26:08;20.51;80.50
9723;DHT22;4900;49.306;8.500;2023-07-29T01:28:34;20.48;80.34
9723;DHT22;4900;49.306;8.500;2023-07-29T01:31:09;20.43;80.29
9723;DHT22;4900;49.306;8.500;2023-07-29T01:36:31;20.43;80.34
9723;DHT22;4900;49.306;8.500;2023-07-29T01:38:58;20.43;80.41
9723;DHT22;4900;49.306;8.500;2023-07-29T01:41:24;20.40;80.37
9723;DHT22;4900;49.306;8.500;2023-07-29T01:43:52;20.40;80.37
9723;DHT22;4900;49.306;8.500;2023-07-29T01:46:18;20.38;80.31
9723;DHT22;4900;49.306;8.500;2023-07-29T01:48:43;20.38;80.27
9723;DHT22;4900;49.306;8.500;2023-07-29T01:51:11;20.37;80.21
9723;DHT22;4900;49.306;8.500;2023-07-29T01:53:37;20.37;80.18
9723;DHT22;4900;49.306;8.500;2023-07-29T01:56:02;20.36;80.12
9723;DHT22;4900;49.306;8.500;2023-07-29T01:58:28;20.31;79.98
9723;DHT22;4900;49.306;8.500;2023-07-29T02:00:53;20.30;80.02
9723;DHT22;4900;49.306;8.500;2023-07-29T02:05:54;20.23;79.98
9723;DHT22;4900;49.306;8.500;2023-07-29T02:08:19;20.21;80.27
9723;DHT22;4900;49.306;8.500;2023-07-29T02:11:18;20.21;80.49
9723;DHT22;4900;49.306;8.500;2023-07-29T02:13:59;20.16;80.67
9723;DHT22;4900;49.306;8.500;2023-07-29T02:16:25;20.20;80.74
9723;DHT22;4900;49.306;8.500;2023-07-29T02:18:52;20.16;80.63
9723;DHT22;4900;49.306;8.500;2023-07-29T02:21:27;20.13;80.85
9723;DHT22;4900;49.306;8.500;2023-07-29T02:23:55;20.13;80.79
9723;DHT22;4900;49.306;8.500;2023-07-29T02:26:23;20.12;80.92
9723;DHT22;4900;49.306;8.500;2023-07-29T02:28:49;20.12;80.98
9723;DHT22;4900;49.306;8.500;2023-07-29T02:31:29;20.12;81.04
9723;DHT22;4900;49.306;8.500;2023-07-29T02:34:07;20.13;81.00
9723;DHT22;4900;49.306;8.500;2023-07-29T02:36:39;20.12;81.05
9723;DHT22;4900;49.306;8.500;2023-07-29T02:39:06;20.16;81.13
9723;DHT22;4900;49.306;8.500;2023-07-29T02:41:32;20.14;81.14
9723;DHT22;4900;49.306;8.500;2023-07-29T02:44:06;20.16;81.05
9723;DHT22;4900;49.306;8.500;2023-07-29T02:46:34;20.14;81.02
9723;DHT22;4900;49.306;8.500;2023-07-29T02:49:06;20.13;80.97
9723;DHT22;4900;49.306;8.500;2023-07-29T02:51:37;20.14;80.96
9723;DHT22;4900;49.306;8.500;2023-07-29T02:54:11;20.12;80.90
9723;DHT22;4900;49.306;8.500;2023-07-29T02:56:36;20.12;80.96
9723;DHT22;4900;49.306;8.500;2023-07-29T02:59:09;20.13;80.97
9723;DHT22;4900;49.306;8.500;2023-07-29T03:01:42;20.12;80.95
9723;DHT22;4900;49.306;8.500;2023-07-29T03:04:21;20.10;80.89
9723;DHT22;4900;49.306;8.500;2023-07-29T03:06:46;20.13;80.83
9723;DHT22;4900;49.306;8.500;2023-07-29T03:09:13;20.13;80.84
9723;DHT22;4900;49.306;8.500;2023-07-29T03:11:39;20.12;80.95
9723;DHT22;4900;49.306;8.500;2023-07-29T03:14:04;20.10;81.01
9723;DHT22;4900;49.306;8.500;2023-07-29T03:16:30;20.14;81.02
9723;DHT22;4900;49.306;8.500;2023-07-29T03:18:56;20.10;81.07
9723;DHT22;4900;49.306;8.500;2023-07-29T03:21:23;20.13;81.09
9723;DHT22;4900;49.306;8.500;2023-07-29T03:23:50;20.13;81.00
9723;DHT22;4900;49.306;8.500;2023-07-29T03:26:18;20.16;80.98
9723;DHT22;4900;49.306;8.500;2023-07-29T03:28:43;20.16;80.92
9723;DHT22;4900;49.306;8.500;2023-07-29T03:31:10;20.14;80.98
9723;DHT22;4900;49.306;8.500;2023-07-29T03:33:36;20.17;81.01
9723;DHT22;4900;49.306;8.500;2023-07-29T03:36:02;20.21;80.87
9723;DHT22;4900;49.306;8.500;2023-07-29T03:38:27;20.20;80.84
9723;DHT22;4900;49.306;8.500;2023-07-29T03:40:53;20.21;80.74
9723;DHT22;4900;49.306;8.500;2023-07-29T03:43:19;20.19;80.77
9723;DHT22;4900;49.306;8.500;2023-07-29T03:45:45;20.19;80.72
9723;DHT22;4900;49.306;8.500;2023-07-29T03:48:11;20.21;80.67
9723;DHT22;4900;49.306;8.500;2023-07-29T03:50:38;20.20;80.60
9723;DHT22;4900;49.306;8.500;2023-07-29T03:53:05;20.20;80.56
9723;DHT22;4900;49.306;8.500;2023-07-29T03:55:31;20.17;80.56
9723;DHT22;4900;49.306;8.500;2023-07-29T03:58:00;20.19;80.55
9723;DHT22;4900;49.306;8.500;2023-07-29T04:00:27;20.17;80.51
9723;DHT22;4900;49.306;8.500;2023-07-29T04:02:54;20.17;80.50
9723;DHT22;4900;49.306;8.500;2023-07-29T04:05:19;20.20;80.57
9723;DHT22;4900;49.306;8.500;2023-07-29T04:07:45;20.20;80.58
9723;DHT22;4900;49.306;8.500;2023-07-29T04:10:10;20.23;80.62
9723;DHT22;4900;49.306;8.500;2023-07-29T04:12:36;20.26;80.63
9723;DHT22;4900;49.306;8.500;2023-07-29T04:15:02;20.26;80.54
9723;DHT22;4900;49.306;8.500;2023-07-29T04:17:28;20.24;80.64
9723;DHT22;4900;49.306;8.500;2023-07-29T04:19:54;20.26;80.71
9723;DHT22;4900;49.306;8.500;2023-07-29T04:22:28;20.20;80.90
9723;DHT22;4900;49.306;8.500;2023-07-29T04:24:56;20.20;81.29
9723;DHT22;4900;49.306;8.500;2023-07-29T04:27:23;20.17;81.53
9723;DHT22;4900;49.306;8.500;2023-07-29T04:30:10;20.14;81.93
9723;DHT22;4900;49.306;8.500;2023-07-29T04:32:36;20.13;82.16
9723;DHT22;4900;49.306;8.500;2023-07-29T04:35:06;20.16;81.97
9723;DHT22;4900;49.306;8.500;2023-07-29T04:37:31;20.13;82.13
9723;DHT22;4900;49.306;8.500;2023-07-29T04:39:59;20.14;82.34
9723;DHT22;4900;49.306;8.500;2023-07-29T04:42:39;20.03;82.78
9723;DHT22;4900;49.306;8.500;2023-07-29T04:45:20;20.09;83.03
9723;DHT22;4900;49.306;8.500;2023-07-29T04:47:45;20.14;82.95
9723;DHT22;4900;49.306;8.500;2023-07-29T04:50:22;20.13;83.22
9723;DHT22;4900;49.306;8.500;2023-07-29T04:53:16;20.16;83.65
9723;DHT22;4900;49.306;8.500;2023-07-29T04:55:52;20.16;83.84
9723;DHT22;4900;49.306;8.500;2023-07-29T04:58:27;20.14;84.10
9723;DHT22;4900;49.306;8.500;2023-07-29T05:00:56;20.24;83.90
9723;DHT22;4900;49.306;8.500;2023-07-29T05:03:23;20.29;83.63
9723;DHT22;4900;49.306;8.500;2023-07-29T05:05:49;20.36;83.59
9723;DHT22;4900;49.306;8.500;2023-07-29T05:08:14;20.34;83.47
9723;DHT22;4900;49.306;8.500;2023-07-29T05:10:40;20.41;83.36
9723;DHT22;4900;49.306;8.500;2023-07-29T05:13:16;20.44;83.09
9723;DHT22;4900;49.306;8.500;2023-07-29T05:15:43;20.49;83.01
9723;DHT22;4900;49.306;8.500;2023-07-29T05:18:18;20.51;82.83
9723;DHT22;4900;49.306;8.500;2023-07-29T05:20:44;20.59;82.76
9723;DHT22;4900;49.306;8.500;2023-07-29T05:23:39;20.64;82.37
9723;DHT22;4900;49.306;8.500;2023-07-29T05:26:06;20.64;82.44
9723;DHT22;4900;49.306;8.500;2023-07-29T05:28:41;20.62;82.37
9723;DHT22;4900;49.306;8.500;2023-07-29T05:31:06;20.64;82.35
9723;DHT22;4900;49.306;8.500;2023-07-29T05:33:32;20.67;82.11
9723;DHT22;4900;49.306;8.500;2023-07-29T05:35:59;20.65;82.13
9723;DHT22;4900;49.306;8.500;2023-07-29T05:38:33;20.65;82.19
9723;DHT22;4900;49.306;8.500;2023-07-29T05:41:00;20.67;82.36
9723;DHT22;4900;49.306;8.500;2023-07-29T05:43:34;20.65;82.57
9723;DHT22;4900;49.306;8.500;2023-07-29T05:46:00;20.65;82.86
9723;DHT22;4900;49.306;8.500;2023-07-29T05:48:26;20.74;82.91
9723;DHT22;4900;49.306;8.500;2023-07-29T05:50:52;20.76;83.02
9723;DHT22;4900;49.306;8.500;2023-07-29T05:53:26;20.83;82.80
9723;DHT22;4900;49.306;8.500;2023-07-29T05:55:53;20.92;82.68
9723;DHT22;4900;49.306;8.500;2023-07-29T05:58:20;20.95;82.67
9723;DHT22;4900;49.306;8.500;2023-07-29T06:00:56;21.06;82.33
9723;DHT22;4900;49.306;8.500;2023-07-29T06:03:23;21.11;82.30
9723;DHT22;4900;49.306;8.500;2023-07-29T06:05:49;21.29;82.15
9723;DHT22;4900;49.306;8.500;2023-07-29T06:08:15;21.46;81.82
9723;DHT22;4900;49.306;8.500;2023-07-29T06:10:40;21.72;81.28
9723;DHT22;4900;49.306;8.500;2023-07-29T06:13:07;21.88;80.78
9723;DHT22;4900;49.306;8.500;2023-07-29T06:15:34;22.03;80.19
9723;DHT22;4900;49.306;8.500;2023-07-29T06:17:59;22.20;79.73
9723;DHT22;4900;49.306;8.500;2023-07-29T06:20:25;22.38;79.39
9723;DHT22;4900;49.306;8.500;2023-07-29T06:23:01;22.55;78.60
9723;DHT22;4900;49.306;8.500;2023-07-29T06:25:38;22.81;78.07
9723;DHT22;4900;49.306;8.500;2023-07-29T06:28:06;23.00;77.54
9723;DHT22;4900;49.306;8.500;2023-07-29T06:30:34;23.00;77.11
9723;DHT22;4900;49.306;8.500;2023-07-29T06:33:00;23.13;76.93
9723;DHT22;4900;49.306;8.500;2023-07-29T06:35:29;22.98;77.15
9723;DHT22;4900;49.306;8.500;2023-07-29T06:37:55;23.10;76.90
9723;DHT22;4900;49.306;8.500;2023-07-29T06:40:22;23.16;76.80
9723;DHT22;4900;49.306;8.500;2023-07-29T06:42:50;23.30;76.85
9723;DHT22;4900;49.306;8.500;2023-07-29T06:45:23;23.35;76.36
9723;DHT22;4900;49.306;8.500;2023-07-29T06:47:58;23.52;75.87
9723;DHT22;4900;49.306;8.500;2023-07-29T06:50:24;23.69;75.60
9723;DHT22;4900;49.306;8.500;2023-07-29T06:52:51;23.71;75.42
9723;DHT22;4900;49.306;8.500;2023-07-29T06:55:17;23.75;75.43
9723;DHT22;4900;49.306;8.500;2023-07-29T06:57:44;23.74;75.53
9723;DHT22;4900;49.306;8.500;2023-07-29T07:00:11;23.79;75.44
9723;DHT22;4900;49.306;8.500;2023-07-29T07:02:38;23.71;75.61
9723;DHT22;4900;49.306;8.500;2023-07-29T07:05:04;23.78;75.52
9723;DHT22;4900;49.306;8.500;2023-07-29T07:07:29;23.99;75.22
9723;DHT22;4900;49.306;8.500;2023-07-29T07:09:55;24.03;74.97
9723;DHT22;4900;49.306;8.500;2023-07-29T07:12:21;24.21;74.53
9723;DHT22;4900;49.306;8.500;2023-07-29T07:14:47;24.65;73.60
9723;DHT22;4900;49.306;8.500;2023-07-29T07:17:13;25.03;72.84
9723;DHT22;4900;49.306;8.500;2023-07-29T07:19:39;25.72;70.89
9723;DHT22;4900;49.306;8.500;2023-07-29T07:22:05;26.45;68.84
9723;DHT22;4900;49.306;8.500;2023-07-29T07:24:32;27.33;66.81
9723;DHT22;4900;49.306;8.500;2023-07-29T07:26:57;27.82;65.15
9723;DHT22;4900;49.306;8.500;2023-07-29T07:29:23;28.08;63.82
9723;DHT22;4900;49.306;8.500;2023-07-29T07:31:53;27.98;63.47
9723;DHT22;4900;49.306;8.500;2023-07-29T07:34:20;27.57;64.47
9723;DHT22;4900;49.306;8.500;2023-07-29T07:36:46;27.31;64.92
9723;DHT22;4900;49.306;8.500;2023-07-29T07:39:12;27.31;65.01
9723;DHT22;4900;49.306;8.500;2023-07-29T07:41:37;26.81;66.08
9723;DHT22;4900;49.306;8.500;2023-07-29T07:44:05;26.59;66.58
9723;DHT22;4900;49.306;8.500;2023-07-29T07:46:30;26.40;67.10
9723;DHT22;4900;49.306;8.500;2023-07-29T07:48:55;26.22;67.81
9723;DHT22;4900;49.306;8.500;2023-07-29T07:51:21;26.29;67.63
9723;DHT22;4900;49.306;8.500;2023-07-29T07:53:48;25.97;68.48
9723;DHT22;4900;49.306;8.500;2023-07-29T07:56:17;25.82;68.78
9723;DHT22;4900;49.306;8.500;2023-07-29T07:58:43;25.81;68.85
9723;DHT22;4900;49.306;8.500;2023-07-29T08:01:09;25.74;69.12
9723;DHT22;4900;49.306;8.500;2023-07-29T08:03:35;25.42;69.83
9723;DHT22;4900;49.306;8.500;2023-07-29T08:06:02;25.53;69.63
9723;DHT22;4900;49.306;8.500;2023-07-29T08:08:28;25.71;69.36
9723;DHT22;4900;49.306;8.500;2023-07-29T08:10:54;25.69;69.39
9723;DHT22;4900;49.306;8.500;2023-07-29T08:13:21;25.71;69.28
9723;DHT22;4900;49.306;8.500;2023-07-29T08:15:48;25.47;69.72
9723;DHT22;4900;49.306;8.500;2023-07-29T08:18:13;25.48;69.61
9723;DHT22;4900;49.306;8.500;2023-07-29T08:20:40;25.57;69.56
9723;DHT22;4900;49.306;8.500;2023-07-29T08:23:08;25.88;68.89
9723;DHT22;4900;49.306;8.500;2023-07-29T08:25:39;26.13;68.31
9723;DHT22;4900;49.306;8.500;2023-07-29T08:28:36;26.30;67.49
9723;DHT22;4900;49.306;8.500;2023-07-29T08:31:03;26.43;67.01
9723;DHT22;4900;49.306;8.500;2023-07-29T08:33:32;26.68;66.59
9723;DHT22;4900;49.306;8.500;2023-07-29T08:36:03;26.55;66.67
9723;DHT22;4900;49.306;8.500;2023-07-29T08:38:31;26.62;66.66
9723;DHT22;4900;49.306;8.500;2023-07-29T08:41:25;26.73;66.49
9723;DHT22;4900;49.306;8.500;2023-07-29T08:44:10;26.81;66.14
9723;DHT22;4900;49.306;8.500;2023-07-29T08:46:39;26.57;66.77
9723;DHT22;4900;49.306;8.500;2023-07-29T08:49:10;26.67;66.43
9723;DHT22;4900;49.306;8.500;2023-07-29T08:54:57;27.88;64.35
9723;DHT22;4900;49.306;8.500;2023-07-29T08:57:23;29.04;62.07
9723;DHT22;4900;49.306;8.500;2023-07-29T08:59:52;29.71;59.63
9723;DHT22;4900;49.306;8.500;2023-07-29T09:02:17;30.62;57.73
9723;DHT22;4900;49.306;8.500;2023-07-29T09:04:52;31.33;55.10
9723;DHT22;4900;49.306;8.500;2023-07-29T09:07:17;32.27;53.50
9723;DHT22;4900;49.306;8.500;2023-07-29T09:09:43;32.89;51.61
9723;DHT22;4900;49.306;8.500;2023-07-29T09:12:09;33.11;51.17
9723;DHT22;4900;49.306;8.500;2023-07-29T09:14:36;33.12;50.63
9723;DHT22;4900;49.306;8.500;2023-07-29T09:17:02;33.20;49.74
9723;DHT22;4900;49.306;8.500;2023-07-29T09:19:32;32.98;49.53
9723;DHT22;4900;49.306;8.500;2023-07-29T09:21:59;32.47;50.27
9723;DHT22;4900;49.306;8.500;2023-07-29T09:24:25;33.27;49.33
9723;DHT22;4900;49.306;8.500;2023-07-29T09:26:55;32.99;49.69
9723;DHT22;4900;49.306;8.500;2023-07-29T09:29:27;33.75;48.25
9723;DHT22;4900;49.306;8.500;2023-07-29T09:32:18;34.01;48.27
9723;DHT22;4900;49.306;8.500;2023-07-29T09:34:44;34.42;46.79
9723;DHT22;4900;49.306;8.500;2023-07-29T09:37:15;35.12;45.79
9723;DHT22;4900;49.306;8.500;2023-07-29T09:39:46;35.81;44.90
9723;DHT22;4900;49.306;8.500;2023-07-29T09:42:17;36.17;44.03
9723;DHT22;4900;49.306;8.500;2023-07-29T09:44:44;36.04;44.14
9723;DHT22;4900;49.306;8.500;2023-07-29T09:47:31;35.46;44.77
9723;DHT22;4900;49.306;8.500;2023-07-29T09:49:59;35.29;44.68
9723;DHT22;4900;49.306;8.500;2023-07-29T09:52:25;35.77;44.09
9723;DHT22;4900;49.306;8.500;2023-07-29T09:54:50;35.78;43.68
9723;DHT22;4900;49.306;8.500;2023-07-29T09:57:18;34.87;44.72
9723;DHT22;4900;49.306;8.500;2023-07-29T09:59:55;34.39;45.43
9723;DHT22;4900;49.306;8.500;2023-07-29T10:02:21;34.99;45.14
9723;DHT22;4900;49.306;8.500;2023-07-29T10:04:47;34.46;45.79
9723;DHT22;4900;49.306;8.500;2023-07-29T10:07:14;34.64;45.34
9723;DHT22;4900;49.306;8.500;2023-07-29T10:09:41;34.52;44.96
9723;DHT22;4900;49.306;8.500;2023-07-29T10:12:07;34.09;45.41
9723;DHT22;4900;49.306;8.500;2023-07-29T10:14:33;34.44;45.16
9723;DHT22;4900;49.306;8.500;2023-07-29T10:17:02;34.27;44.73
9723;DHT22;4900;49.306;8.500;2023-07-29T10:19:28;34.23;45.19
9723;DHT22;4900;49.306;8.500;2023-07-29T10:22:01;34.19;45.10
9723;DHT22;4900;49.306;8.500;2023-07-29T10:24:30;33.80;46.01
9723;DHT22;4900;49.306;8.500;2023-07-29T10:26:58;33.11;47.19
9723;DHT22;4900;49.306;8.500;2023-07-29T10:29:34;32.65;47.93
9723;DHT22;4900;49.306;8.500;2023-07-29T10:32:04;31.96;48.92
9723;DHT22;4900;49.306;8.500;2023-07-29T10:34:31;31.72;49.76
9723;DHT22;4900;49.306;8.500;2023-07-29T10:40:50;32.71;49.74
9723;DHT22;4900;49.306;8.500;2023-07-29T10:43:36;33.30;48.62
9723;DHT22;4900;49.306;8.500;2023-07-29T10:46:23;34.01;47.23
9723;DHT22;4900;49.306;8.500;2023-07-29T10:49:07;34.86;45.53
9723;DHT22;4900;49.306;8.500;2023-07-29T10:51:51;35.38;44.15
9723;DHT22;4900;49.306;8.500;2023-07-29T10:54:48;35.28;43.53
9723;DHT22;4900;49.306;8.500;2023-07-29T10:57:38;34.87;43.69
9723;DHT22;4900;49.306;8.500;2023-07-29T11:00:30;35.47;42.97
9723;DHT22;4900;49.306;8.500;2023-07-29T11:03:00;35.81;42.25
9723;DHT22;4900;49.306;8.500;2023-07-29T11:05:27;35.87;42.59
9723;DHT22;4900;49.306;8.500;2023-07-29T11:08:19;35.33;43.29
9723;DHT22;4900;49.306;8.500;2023-07-29T11:13:29;36.12;42.19
9723;DHT22;4900;49.306;8.500;2023-07-29T11:15:56;36.80;41.15
9723;DHT22;4900;49.306;8.500;2023-07-29T11:18:33;36.66;40.57
9723;DHT22;4900;49.306;8.500;2023-07-29T11:21:01;36.65;39.53
9723;DHT22;4900;49.306;8.500;2023-07-29T11:23:33;36.59;38.90
9723;DHT22;4900;49.306;8.500;2023-07-29T11:26:02;36.14;39.42
9723;DHT22;4900;49.306;8.500;2023-07-29T11:28:28;36.46;39.05
9723;DHT22;4900;49.306;8.500;2023-07-29T11:30:55;36.87;38.91
9723;DHT22;4900;49.306;8.500;2023-07-29T11:33:28;36.77;39.08
9723;DHT22;4900;49.306;8.500;2023-07-29T11:35:59;36.43;39.17
9723;DHT22;4900;49.306;8.500;2023-07-29T11:38:25;36.57;38.23
9723;DHT22;4900;49.306;8.500;2023-07-29T11:41:03;37.32;37.38
9723;DHT22;4900;49.306;8.500;2023-07-29T11:43:35;37.17;37.45
9723;DHT22;4900;49.306;8.500;2023-07-29T11:46:02;37.41;36.63
9723;DHT22;4900;49.306;8.500;2023-07-29T11:48:31;37.77;36.58
9723;DHT22;4900;49.306;8.500;2023-07-29T11:50:58;37.52;36.97
9723;DHT22;4900;49.306;8.500;2023-07-29T11:53:29;37.58;36.97
9723;DHT22;4900;49.306;8.500;2023-07-29T11:56:05;37.82;36.51
9723;DHT22;4900;49.306;8.500;2023-07-29T11:58:32;38.27;35.88
9723;DHT22;4900;49.306;8.500;2023-07-29T12:00:58;38.18;36.14
9723;DHT22;4900;49.306;8.500;2023-07-29T12:03:30;38.51;35.87
9723;DHT22;4900;49.306;8.500;2023-07-29T12:05:56;38.86;35.86
9723;DHT22;4900;49.306;8.500;2023-07-29T12:08:22;38.76;35.41
9723;DHT22;4900;49.306;8.500;2023-07-29T12:10:48;38.36;35.12
9723;DHT22;4900;49.306;8.500;2023-07-29T12:13:14;38.56;34.72
9723;DHT22;4900;49.306;8.500;2023-07-29T12:15:40;38.01;35.38
9723;DHT22;4900;49.306;8.500;2023-07-29T12:18:08;37.79;35.10
9723;DHT22;4900;49.306;8.500;2023-07-29T12:20:33;37.68;35.38
9723;DHT22;4900;49.306;8.500;2023-07-29T12:23:06;37.35;35.65
9723;DHT22;4900;49.306;8.500;2023-07-29T12:25:43;37.65;35.62
9723;DHT22;4900;49.306;8.500;2023-07-29T12:28:22;38.13;35.32
9723;DHT22;4900;49.306;8.500;2023-07-29T12:31:17;37.91;35.65
9723;DHT22;4900;49.306;8.500;2023-07-29T12:33:43;37.93;35.60
9723;DHT22;4900;49.306;8.500;2023-07-29T12:36:10;38.31;35.19
9723;DHT22;4900;49.306;8.500;2023-07-29T12:38:37;38.68;34.67
9723;DHT22;4900;49.306;8.500;2023-07-29T12:41:03;38.96;34.53
9723;DHT22;4900;49.306;8.500;2023-07-29T12:43:29;39.24;33.76
9723;DHT22;4900;49.306;8.500;2023-07-29T12:45:57;39.69;33.29
9723;DHT22;4900;49.306;8.500;2023-07-29T12:48:23;40.14;33.02
9723;DHT22;4900;49.306;8.500;2023-07-29T12:50:48;40.02;33.11
9723;DHT22;4900;49.306;8.500;2023-07-29T12:53:14;39.82;32.66
9723;DHT22;4900;49.306;8.500;2023-07-29T12:55:39;39.00;32.80
9723;DHT22;4900;49.306;8.500;2023-07-29T12:58:05;39.27;32.30
9723;DHT22;4900;49.306;8.500;2023-07-29T13:00:30;39.03;32.29
9723;DHT22;4900;49.306;8.500;2023-07-29T13:02:56;39.38;31.90
9723;DHT22;4900;49.306;8.500;2023-07-29T13:05:21;39.20;32.22
9723;DHT22;4900;49.306;8.500;2023-07-29T13:07:47;39.17;32.12
9723;DHT22;4900;49.306;8.500;2023-07-29T13:10:13;39.69;31.49
9723;DHT22;4900;49.306;8.500;2023-07-29T13:12:39;39.55;31.04
9723;DHT22;4900;49.306;8.500;2023-07-29T13:15:06;38.96;31.60
9723;DHT22;4900;49.306;8.500;2023-07-29T13:17:33;37.84;31.86
9723;DHT22;4900;49.306;8.500;2023-07-29T13:19:58;37.79;31.66
9723;DHT22;4900;49.306;8.500;2023-07-29T13:22:25;37.62;31.78
9723;DHT22;4900;49.306;8.500;2023-07-29T13:24:50;37.27;32.20
9723;DHT22;4900;49.306;8.500;2023-07-29T13:27:17;37.80;31.76
9723;DHT22;4900;49.306;8.500;2023-07-29T13:29:42;38.03;31.20
9723;DHT22;4900;49.306;8.500;2023-07-29T13:32:09;38.42;30.69
9723;DHT22;4900;49.306;8.500;2023-07-29T13:34:34;38.51;31.28
9723;DHT22;4900;49.306;8.500;2023-07-29T13:37:01;39.04;30.73
9723;DHT22;4900;49.306;8.500;2023-07-29T13:39:27;38.95;30.99
9723;DHT22;4900;49.306;8.500;2023-07-29T13:41:54;39.25;30.05
9723;DHT22;4900;49.306;8.500;2023-07-29T13:44:19;38.76;31.01
9723;DHT22;4900;49.306;8.500;2023-07-29T13:46:45;38.34;31.72
9723;DHT22;4900;49.306;8.500;2023-07-29T13:49:11;37.43;32.79
9723;DHT22;4900;49.306;8.500;2023-07-29T13:51:38;37.84;32.16
9723;DHT22;4900;49.306;8.500;2023-07-29T13:54:04;37.72;32.28
9723;DHT22;4900;49.306;8.500;2023-07-29T13:56:31;37.69;32.89
9723;DHT22;4900;49.306;8.500;2023-07-29T13:58:56;38.34;32.35
9723;DHT22;4900;49.306;8.500;2023-07-29T14:01:23;38.65;31.84
9723;DHT22;4900;49.306;8.500;2023-07-29T14:03:51;39.42;31.42
9723;DHT22;4900;49.306;8.500;2023-07-29T14:06:16;39.57;31.20
9723;DHT22;4900;49.306;8.500;2023-07-29T14:08:42;40.17;30.68
9723;DHT22;4900;49.306;8.500;2023-07-29T14:11:08;40.43;30.48
9723;DHT22;4900;49.306;8.500;2023-07-29T14:13:38;40.43;30.55
9723;DHT22;4900;49.306;8.500;2023-07-29T14:16:06;40.13;31.12
9723;DHT22;4900;49.306;8.500;2023-07-29T14:18:31;40.30;30.72
9723;DHT22;4900;49.306;8.500;2023-07-29T14:21:03;40.59;30.44
9723;DHT22;4900;49.306;8.500;2023-07-29T14:23:30;40.64;30.32
9723;DHT22;4900;49.306;8.500;2023-07-29T14:25:58;40.71;30.02
9723;DHT22;4900;49.306;8.500;2023-07-29T14:28:23;40.37;30.36
9723;DHT22;4900;49.306;8.500;2023-07-29T14:30:51;40.59;29.96
9723;DHT22;4900;49.306;8.500;2023-07-29T14:33:24;40.61;29.68
9723;DHT22;4900;49.306;8.500;2023-07-29T14:35:50;41.10;29.51
9723;DHT22;4900;49.306;8.500;2023-07-29T14:38:15;41.30;29.29
9723;DHT22;4900;49.306;8.500;2023-07-29T14:40:41;41.11;29.14
9723;DHT22;4900;49.306;8.500;2023-07-29T14:43:08;41.36;29.22
9723;DHT22;4900;49.306;8.500;2023-07-29T14:45:43;41.75;29.18
9723;DHT22;4900;49.306;8.500;2023-07-29T14:48:09;41.60;28.99
9723;DHT22;4900;49.306;8.500;2023-07-29T14:50:35;41.38;28.98
9723;DHT22;4900;49.306;8.500;2023-07-29T14:53:07;41.70;28.72
9723;DHT22;4900;49.306;8.500;2023-07-29T14:55:34;41.96;28.83
9723;DHT22;4900;49.306;8.500;2023-07-29T14:58:06;41.92;28.40
9723;DHT22;4900;49.306;8.500;2023-07-29T15:00:35;41.88;28.32
9723;DHT22;4900;49.306;8.500;2023-07-29T15:03:02;41.86;28.25
9723;DHT22;4900;49.306;8.500;2023-07-29T15:05:27;41.34;28.35
9723;DHT22;4900;49.306;8.500;2023-07-29T15:07:53;41.20;28.28
9723;DHT22;4900;49.306;8.500;2023-07-29T15:10:21;41.68;28.20
9723;DHT22;4900;49.306;8.500;2023-07-29T15:12:47;41.60;27.99
9723;DHT22;4900;49.306;8.500;2023-07-29T15:15:13;41.55;28.17
9723;DHT22;4900;49.306;8.500;2023-07-29T15:17:39;41.92;28.12
9723;DHT22;4900;49.306;8.500;2023-07-29T15:20:05;41.64;28.54
9723;DHT22;4900;49.306;8.500;2023-07-29T15:22:31;41.62;28.38
9723;DHT22;4900;49.306;8.500;2023-07-29T15:24:57;41.71;28.35
9723;DHT22;4900;49.306;8.500;2023-07-29T15:27:25;41.50;28.69
9723;DHT22;4900;49.306;8.500;2023-07-29T15:29:51;41.74;28.63
9723;DHT22;4900;49.306;8.500;2023-07-29T15:32:17;41.57;28.43
9723;DHT22;4900;49.306;8.500;2023-07-29T15:34:43;41.26;28.86
9723;DHT22;4900;49.306;8.500;2023-07-29T15:37:09;41.38;28.70
9723;DHT22;4900;49.306;8.500;2023-07-29T15:39:35;41.55;28.69
9723;DHT22;4900;49.306;8.500;2023-07-29T15:42:01;41.61;28.52
9723;DHT22;4900;49.306;8.500;2023-07-29T15:44:28;41.40;28.68
9723;DHT22;4900;49.306;8.500;2023-07-29T15:46:55;41.16;28.86
9723;DHT22;4900;49.306;8.500;2023-07-29T15:49:23;40.40;29.19
9723;DHT22;4900;49.306;8.500;2023-07-29T15:51:51;40.06;29.75
9723;DHT22;4900;49.306;8.500;2023-07-29T15:54:17;39.45;30.63
9723;DHT22;4900;49.306;8.500;2023-07-29T15:56:42;39.17;31.02
9723;DHT22;4900;49.306;8.500;2023-07-29T15:59:08;38.70;31.81
9723;DHT22;4900;49.306;8.500;2023-07-29T16:01:34;37.89;32.78
9723;DHT22;4900;49.306;8.500;2023-07-29T16:04:00;37.52;32.98
9723;DHT22;4900;49.306;8.500;2023-07-29T16:06:26;37.13;33.61
9723;DHT22;4900;49.306;8.500;2023-07-29T16:08:52;36.53;34.66
9723;DHT22;4900;49.306;8.500;2023-07-29T16:11:17;36.24;35.07
9723;DHT22;4900;49.306;8.500;2023-07-29T16:13:43;35.61;35.98
9723;DHT22;4900;49.306;8.500;2023-07-29T16:16:09;35.38;36.41
9723;DHT22;4900;49.306;8.500;2023-07-29T16:18:36;35.07;37.31
9723;DHT22;4900;49.306;8.500;2023-07-29T16:21:09;34.15;38.55
9723;DHT22;4900;49.306;8.500;2023-07-29T16:23:36;33.60;39.84
9723;DHT22;4900;49.306;8.500;2023-07-29T16:26:03;32.99;40.99
9723;DHT22;4900;49.306;8.500;2023-07-29T16:28:29;32.63;41.96
9723;DHT22;4900;49.306;8.500;2023-07-29T16:30:58;32.29;43.11